Time;durP1;ratioP1;P1;durP2;ratioP2;P2;SDS_P1;SDS_P2;PMS_P1;PMS_P2;Temp;Humidity;BMP_temperature;BMP_pressure;BME280_temperature;BME280_humidity;BME280_pressure;Samples;Min_cycle;Max_cycle;Signal;HPM_P1;HPM_P2
2021/11/21 00:01:56;;;;;;;12.23;9.27;;;;;;;8.98;92.44;101594.75;5021880;28;20048;-85
2021/11/21 00:04:22;;;;;;;11.13;8.82;;;;;;;8.97;92.31;101593.88;5035941;28;20060;-82
2021/11/21 00:06:47;;;;;;;10.57;9.18;;;;;;;8.97;92.45;101596.50;5073112;28;20032;-85
2021/11/21 00:09:13;;;;;;;13.50;8.73;;;;;;;8.98;92.37;101592.97;5035301;28;20032;-82
2021/11/21 00:11:38;;;;;;;14.02;9.18;;;;;;;8.97;92.30;101596.50;5062727;28;20049;-81
2021/11/21 00:14:06;;;;;;;9.75;8.20;;;;;;;8.98;92.45;101585.13;5046228;28;20253;-81
2021/11/21 00:16:32;;;;;;;12.70;8.98;;;;;;;8.98;92.39;101586.91;5064448;28;20109;-84
2021/11/21 00:18:57;;;;;;;13.73;9.00;;;;;;;8.96;92.26;101579.09;5028924;28;20112;-83
2021/11/21 00:21:23;;;;;;;10.73;8.13;;;;;;;8.98;92.35;101574.69;5047132;28;20039;-84
2021/11/21 00:23:48;;;;;;;10.32;8.20;;;;;;;8.97;92.02;101570.38;5028600;28;20173;-84
2021/11/21 00:26:13;;;;;;;9.75;7.97;;;;;;;9.00;92.31;101564.22;5064391;28;20349;-86
2021/11/21 00:28:39;;;;;;;16.52;9.50;;;;;;;8.99;92.35;101563.38;5045922;28;20040;-83
2021/11/21 00:31:04;;;;;;;12.10;8.48;;;;;;;8.98;92.09;101569.47;5064222;28;20336;-81
2021/11/21 00:33:30;;;;;;;12.82;8.20;;;;;;;8.97;91.70;101561.69;5030529;28;20316;-84
2021/11/21 00:35:56;;;;;;;13.02;8.30;;;;;;;8.96;91.82;101560.81;5046206;28;20030;-83
2021/11/21 00:38:21;;;;;;;8.90;8.02;;;;;;;8.96;92.20;101550.34;5045328;28;20263;-80
2021/11/21 00:40:46;;;;;;;10.18;7.88;;;;;;;8.96;91.98;101549.50;5063584;28;20047;-80
2021/11/21 00:43:12;;;;;;;14.73;8.10;;;;;;;8.96;91.92;101552.97;5028963;28;20021;-81
2021/11/21 00:45:38;;;;;;;15.05;8.45;;;;;;;8.95;91.79;101547.78;5029175;28;20307;-82
2021/11/21 00:48:03;;;;;;;15.32;8.27;;;;;;;8.95;91.57;101548.66;5050807;28;20050;-82
2021/11/21 00:50:30;;;;;;;10.38;8.05;;;;;;;8.95;91.82;101547.78;5048877;28;20047;-82
2021/11/21 00:53:00;;;;;;;13.70;7.68;;;;;;;8.95;91.73;101546.03;5060356;28;20170;-82
2021/11/21 00:55:37;;;;;;;11.93;8.07;;;;;;;8.93;91.62;101550.44;5022891;28;20055;-82
2021/11/21 00:58:04;;;;;;;14.65;7.80;;;;;;;8.95;91.63;101550.38;5047997;28;20112;-82
2021/11/21 01:00:29;;;;;;;7.03;6.32;;;;;;;8.95;91.64;101548.66;5029806;28;20056;-82
2021/11/21 01:02:55;;;;;;;6.95;6.35;;;;;;;8.93;91.26;101537.38;5045318;28;20048;-82
2021/11/21 01:05:20;;;;;;;12.10;6.60;;;;;;;8.92;91.32;101538.25;5028657;28;20028;-82
2021/11/21 01:07:45;;;;;;;9.73;6.38;;;;;;;8.93;91.40;101534.78;5045234;28;20037;-82
2021/11/21 01:10:14;;;;;;;12.10;6.53;;;;;;;8.92;91.48;101529.56;5045107;28;20225;-82
2021/11/21 01:12:42;;;;;;;8.90;6.32;;;;;;;8.92;91.48;101526.97;5027543;28;20118;-82
2021/11/21 01:15:09;;;;;;;9.83;6.30;;;;;;;8.92;91.33;101537.41;5062761;28;20040;-82
2021/11/21 01:17:34;;;;;;;9.32;6.22;;;;;;;8.93;91.72;101523.44;5028353;28;20076;-82
2021/11/21 01:20:00;;;;;;;7.03;5.35;;;;;;;8.92;91.51;101519.97;5012290;28;20033;-82
2021/11/21 01:22:29;;;;;;;10.05;5.10;;;;;;;8.93;91.44;101526.94;5028178;28;20100;-82
2021/11/21 01:24:55;;;;;;;6.65;4.95;;;;;;;8.91;91.59;101518.25;5029111;28;20039;-82
2021/11/21 01:27:21;;;;;;;6.07;5.47;;;;;;;8.92;91.57;101519.97;5044575;28;20032;-82
2021/11/21 01:29:46;;;;;;;6.32;5.45;;;;;;;8.92;91.77;101530.44;5028938;28;20046;-82
2021/11/21 01:32:11;;;;;;;8.27;5.72;;;;;;;8.93;91.63;101523.44;5061793;28;20059;-82
2021/11/21 01:34:37;;;;;;;8.93;5.45;;;;;;;8.93;91.87;101516.50;5028012;28;20048;-82
2021/11/21 01:37:02;;;;;;;8.15;5.40;;;;;;;8.95;91.77;101513.81;5045171;28;20370;-81
2021/11/21 01:39:28;;;;;;;5.95;5.32;;;;;;;8.95;92.15;101503.34;5044446;28;20233;-81
2021/11/21 01:41:53;;;;;;;9.10;5.38;;;;;;;8.98;91.96;101508.53;5025686;28;20086;-82
2021/11/21 01:44:18;;;;;;;6.43;5.10;;;;;;;8.97;92.27;101510.28;5041935;28;20033;-81
2021/11/21 01:46:44;;;;;;;7.97;5.45;;;;;;;8.98;92.16;101504.16;5025914;28;20036;-82
2021/11/21 01:49:10;;;;;;;9.98;5.53;;;;;;;8.99;92.16;101502.41;5040763;28;20384;-82
2021/11/21 01:51:36;;;;;;;5.63;4.30;;;;;;;9.02;92.51;101507.56;5025327;28;20021;-82
2021/11/21 01:54:02;;;;;;;10.02;4.40;;;;;;;9.01;92.59;101500.63;5059387;28;20049;-81
2021/11/21 01:56:27;;;;;;;6.55;4.18;;;;;;;9.01;92.68;101500.63;5028626;28;20040;-81
2021/11/21 01:58:54;;;;;;;12.60;4.63;;;;;;;9.02;92.91;101491.88;5024470;28;20044;-81
2021/11/21 02:04:43;;;;;;;8.45;3.50;;;;;;;9.05;92.92;101491.81;5050704;28;20072;-81
2021/11/21 02:07:09;;;;;;;8.68;4.28;;;;;;;9.05;93.08;101480.50;5059717;28;20209;-81
2021/11/21 02:09:34;;;;;;;7.38;3.67;;;;;;;9.06;93.29;101482.22;5024432;28;20036;-81
2021/11/21 02:11:59;;;;;;;7.53;3.95;;;;;;;9.07;93.23;101476.09;5059283;28;20043;-81
2021/11/21 02:14:25;;;;;;;7.40;4.13;;;;;;;9.07;93.22;101474.34;5059051;28;20033;-81
2021/11/21 02:16:50;;;;;;;8.15;3.88;;;;;;;9.08;93.25;101467.34;5025123;28;20044;-81
2021/11/21 02:19:19;;;;;;;7.68;4.57;;;;;;;9.09;93.43;101467.31;5028831;28;20039;-82
2021/11/21 02:21:44;;;;;;;8.13;4.63;;;;;;;9.09;93.52;101467.31;5043132;28;20037;-81
2021/11/21 02:24:09;;;;;;;13.13;4.75;;;;;;;9.10;93.71;101466.44;5024008;28;20063;-82
2021/11/21 02:26:35;;;;;;;5.90;4.50;;;;;;;9.09;93.59;101459.47;5064879;28;20255;-81
2021/11/21 02:29:00;;;;;;;14.70;5.15;;;;;;;9.10;94.04;101457.75;5024790;28;20075;-84
2021/11/21 02:31:29;;;;;;;6.78;4.93;;;;;;;9.11;94.07;101452.44;5041928;28;20128;-82
2021/11/21 02:33:54;;;;;;;8.68;5.07;;;;;;;9.12;93.94;101450.72;5025076;28;20236;-85
2021/11/21 02:36:20;;;;;;;8.00;5.03;;;;;;;9.12;93.81;101445.50;5025441;28;20033;-82
2021/11/21 02:38:45;;;;;;;7.47;4.85;;;;;;;9.11;93.97;101434.16;5037623;28;20044;-83
2021/11/21 02:41:11;;;;;;;6.03;4.63;;;;;;;9.13;93.83;101439.34;5024814;28;20037;-82
2021/11/21 02:43:37;;;;;;;7.47;5.72;;;;;;;9.15;93.95;101429.72;5024696;28;20071;-82
2021/11/21 02:46:03;;;;;;;5.25;4.68;;;;;;;9.14;94.01;101426.25;5027248;28;20148;-82
2021/11/21 02:48:30;;;;;;;9.70;5.95;;;;;;;9.15;93.86;101427.09;5022153;28;20033;-82
2021/11/21 02:50:55;;;;;;;6.65;5.68;;;;;;;9.15;93.90;101424.50;5025192;28;20508;-82
2021/11/21 02:53:23;;;;;;;9.75;6.32;;;;;;;9.15;94.06;101417.53;5040818;28;20103;-82
2021/11/21 02:55:50;;;;;;;7.47;6.50;;;;;;;9.17;94.11;101410.50;5025433;28;20037;-82
2021/11/21 02:58:16;;;;;;;6.97;6.28;;;;;;;9.18;94.29;101411.34;5023011;28;20221;-82
2021/11/21 03:00:41;;;;;;;7.72;7.03;;;;;;;9.16;94.41;101403.56;5056260;28;20102;-80
2021/11/21 03:03:07;;;;;;;8.77;7.15;;;;;;;9.18;94.48;101400.91;5040733;28;20045;-82
2021/11/21 03:05:33;;;;;;;9.63;7.53;;;;;;;9.19;94.61;101400.88;5022024;28;20057;-82
2021/11/21 03:07:59;;;;;;;10.60;7.05;;;;;;;9.19;94.69;101397.41;5038164;28;20041;-82
2021/11/21 03:10:24;;;;;;;12.63;8.32;;;;;;;9.17;94.88;101392.22;5057057;28;20051;-82
2021/11/21 03:12:52;;;;;;;7.88;7.10;;;;;;;9.18;95.13;101398.28;5023695;28;20284;-81
2021/11/21 03:15:18;;;;;;;8.50;7.63;;;;;;;9.18;95.25;101391.31;5031694;28;20025;-81
2021/11/21 03:17:43;;;;;;;8.90;8.00;;;;;;;9.18;95.18;101388.69;5043733;28;20341;-81
2021/11/21 03:20:13;;;;;;;12.15;7.43;;;;;;;9.20;95.31;101386.03;5005751;28;20024;-82
2021/11/21 03:22:39;;;;;;;9.45;6.40;;;;;;;9.21;95.24;101390.38;5019130;28;20033;-81
2021/11/21 03:25:05;;;;;;;7.90;5.45;;;;;;;9.19;95.33;101386.94;5020182;28;20037;-82
2021/11/21 03:27:30;;;;;;;8.57;6.40;;;;;;;9.20;95.38;101386.03;5035908;28;20096;-81
2021/11/21 03:29:56;;;;;;;6.38;4.43;;;;;;;9.20;95.49;101383.44;5019871;28;20040;-81
2021/11/21 03:32:21;;;;;;;6.88;3.95;;;;;;;9.22;95.66;101392.06;5035617;28;20036;-81
2021/11/21 03:34:47;;;;;;;8.25;5.22;;;;;;;9.23;95.53;101401.66;5053907;28;20034;-81
2021/11/21 03:37:12;;;;;;;6.75;3.30;;;;;;;9.27;95.66;101407.66;5021623;28;20045;-81
2021/11/21 03:39:38;;;;;;;6.50;3.22;;;;;;;9.31;95.81;101396.22;5039537;28;21189;-81
2021/11/21 03:42:04;;;;;;;5.57;2.20;;;;;;;9.36;95.83;101394.34;5042022;28;20317;-81
2021/11/21 03:44:29;;;;;;;4.40;1.80;;;;;;;9.37;95.80;101394.31;5040831;28;20086;-79
2021/11/21 03:46:54;;;;;;;6.65;1.80;;;;;;;9.39;95.68;101396.88;5040697;28;20037;-79
2021/11/21 03:49:20;;;;;;;4.07;1.40;;;;;;;9.45;95.59;101388.88;5052353;28;20044;-79
2021/11/21 03:51:45;;;;;;;4.38;1.60;;;;;;;9.52;95.76;101393.03;5024406;28;20418;-78
2021/11/21 03:54:11;;;;;;;3.05;1.20;;;;;;;9.56;95.69;101397.25;5052975;28;20043;-78
2021/11/21 03:56:36;;;;;;;2.22;1.30;;;;;;;9.61;96.07;101402.38;5039665;28;20028;-78
2021/11/21 03:59:02;;;;;;;7.07;1.25;;;;;;;9.63;96.08;101394.50;5059557;28;20041;-81
2021/11/21 04:01:27;;;;;;;5.18;1.10;;;;;;;9.63;96.01;101405.81;5020530;28;20082;-82
2021/11/21 04:03:53;;;;;;;4.00;0.70;;;;;;;9.67;96.07;101403.97;5021144;28;20225;-81
2021/11/21 04:06:18;;;;;;;2.05;0.90;;;;;;;9.68;96.11;101393.47;5067416;28;20088;-81
2021/11/21 04:08:44;;;;;;;4.35;0.80;;;;;;;9.68;95.93;101395.19;5021185;28;20057;-81
2021/11/21 04:11:10;;;;;;;4.55;0.70;;;;;;;9.70;96.10;101398.66;5041091;28;20042;-81
2021/11/21 04:13:35;;;;;;;5.30;0.88;;;;;;;9.68;96.12;101395.19;5024562;28;20045;-81
2021/11/21 04:16:01;;;;;;;4.65;0.75;;;;;;;9.67;95.87;101409.19;5041219;28;20446;-81
2021/11/21 04:18:26;;;;;;;2.45;0.70;;;;;;;9.65;96.03;101404.00;5012351;28;20030;-81
2021/11/21 04:20:52;;;;;;;6.25;0.77;;;;;;;9.61;95.76;101398.00;5041017;28;20037;-81
2021/11/21 04:23:17;;;;;;;6.20;0.65;;;;;;;9.62;95.62;101385.78;5024699;28;20047;-81
2021/11/21 04:25:42;;;;;;;3.83;0.60;;;;;;;9.62;95.60;101396.22;5041095;28;20102;-81
2021/11/21 04:28:09;;;;;;;3.28;0.55;;;;;;;9.59;95.50;101393.72;5041900;28;20053;-81
2021/11/21 04:30:34;;;;;;;1.40;0.50;;;;;;;9.56;95.60;101399.88;5040861;28;20061;-82
2021/11/21 04:33:00;;;;;;;3.53;0.60;;;;;;;9.54;95.09;101400.84;5041337;28;20079;-81
2021/11/21 04:35:25;;;;;;;5.60;0.80;;;;;;;9.52;95.14;101407.88;5040419;28;20101;-82
2021/11/21 04:37:51;;;;;;;2.40;0.30;;;;;;;9.51;94.87;101398.28;5041983;28;20060;-81
2021/11/21 04:40:16;;;;;;;1.67;0.50;;;;;;;9.49;94.69;101394.88;5040717;28;20040;-81
2021/11/21 04:42:42;;;;;;;5.05;1.00;;;;;;;9.47;94.85;101392.28;5023893;28;20071;-81
2021/11/21 04:45:08;;;;;;;6.20;0.70;;;;;;;9.49;94.99;101392.25;5040641;28;20053;-81
2021/11/21 04:47:33;;;;;;;4.28;0.70;;;;;;;9.55;95.27;101397.31;5007123;28;20032;-81
2021/11/21 04:49:59;;;;;;;3.38;0.68;;;;;;;9.54;95.27;101399.06;5040750;28;20041;-81
2021/11/21 04:52:24;;;;;;;2.97;0.80;;;;;;;9.53;95.50;101396.50;5023131;28;20160;-81
2021/11/21 04:54:50;;;;;;;4.82;0.95;;;;;;;9.53;95.41;101396.50;5041341;28;20312;-81
2021/11/21 04:57:16;;;;;;;4.22;0.77;;;;;;;9.56;95.44;101393.81;5040252;28;20060;-81
2021/11/21 04:59:41;;;;;;;5.32;1.02;;;;;;;9.58;95.37;101398.06;5042780;28;20340;-81
2021/11/21 05:02:07;;;;;;;2.05;0.60;;;;;;;9.60;95.80;101391.06;5043351;28;20090;-81
2021/11/21 05:04:32;;;;;;;4.95;0.60;;;;;;;9.66;95.80;101394.38;5042573;28;20033;-81
2021/11/21 05:06:58;;;;;;;4.72;0.95;;;;;;;9.67;95.96;101394.34;5061308;28;20359;-81
2021/11/21 05:09:23;;;;;;;5.00;0.80;;;;;;;9.67;96.13;101386.50;5060246;28;20212;-81
2021/11/21 05:11:49;;;;;;;6.57;0.70;;;;;;;9.64;95.43;101391.84;5026463;28;20037;-81
2021/11/21 05:14:17;;;;;;;6.57;0.70;;;;;;;9.66;95.53;101390.03;5060745;28;20218;-81
2021/11/21 05:16:42;;;;;;;4.83;0.70;;;;;;;9.66;95.60;101391.78;5042216;28;20060;-82
2021/11/21 05:19:08;;;;;;;3.55;0.80;;;;;;;9.68;95.50;101389.97;5023110;28;20298;-81
2021/11/21 05:21:33;;;;;;;11.75;1.67;;;;;;;9.67;95.51;101393.50;5024580;28;20032;-81
2021/11/21 05:24:00;;;;;;;2.40;0.55;;;;;;;9.64;95.78;101394.47;5010303;28;20443;-81
2021/11/21 05:26:26;;;;;;;3.05;0.85;;;;;;;9.56;95.36;101392.03;5026613;28;20044;-81
2021/11/21 05:28:51;;;;;;;11.40;1.50;;;;;;;9.52;94.65;101397.41;5036012;28;20394;-81
2021/11/21 05:31:17;;;;;;;4.22;1.05;;;;;;;9.47;94.39;101394.91;5026406;28;20403;-81
2021/11/21 05:33:42;;;;;;;3.40;0.73;;;;;;;9.43;94.24;101398.50;5041206;28;20043;-81
2021/11/21 05:36:08;;;;;;;5.93;1.00;;;;;;;9.40;93.98;101394.22;5042985;28;20359;-81
2021/11/21 05:38:33;;;;;;;9.48;0.80;;;;;;;9.38;94.09;101395.16;5042279;28;20033;-81
2021/11/21 05:40:59;;;;;;;12.00;1.48;;;;;;;9.35;93.79;101387.38;5010241;28;20116;-81
2021/11/21 05:43:24;;;;;;;4.28;0.68;;;;;;;9.33;93.94;101391.81;5008237;28;20075;-81
2021/11/21 05:45:50;;;;;;;6.93;0.80;;;;;;;9.33;93.96;101386.56;5060849;28;20300;-82
2021/11/21 05:48:15;;;;;;;3.70;0.80;;;;;;;9.29;93.74;101385.78;5041947;28;20037;-81
2021/11/21 05:50:41;;;;;;;5.63;0.73;;;;;;;9.27;93.78;101382.38;5042502;28;20237;-81
2021/11/21 05:53:06;;;;;;;7.78;1.35;;;;;;;9.26;93.77;101385.00;5042001;28;20531;-81
2021/11/21 05:55:31;;;;;;;5.82;0.60;;;;;;;9.23;93.75;101383.34;5041348;28;20059;-81
2021/11/21 05:57:57;;;;;;;1.88;0.80;;;;;;;9.21;93.88;101382.53;5025439;28;20041;-81
2021/11/21 06:00:23;;;;;;;7.57;1.00;;;;;;;9.18;93.83;101383.47;5042676;28;20267;-81
2021/11/21 06:02:49;;;;;;;8.25;1.25;;;;;;;9.18;93.52;101385.22;5030967;28;20100;-81
2021/11/21 06:05:15;;;;;;;5.07;0.65;;;;;;;9.16;93.58;101379.19;5021883;28;20033;-81
2021/11/21 06:07:40;;;;;;;11.43;1.88;;;;;;;9.14;93.59;101387.06;5041258;28;20071;-81
2021/11/21 06:10:06;;;;;;;5.53;1.33;;;;;;;9.13;93.40;101385.38;5059604;28;20340;-81
2021/11/21 06:12:32;;;;;;;5.00;1.02;;;;;;;9.11;93.78;101383.66;5041604;28;20037;-81
2021/11/21 06:14:57;;;;;;;6.43;1.02;;;;;;;9.10;93.54;101384.59;5042068;28;20256;-81
2021/11/21 06:17:23;;;;;;;5.13;1.38;;;;;;;9.09;93.76;101382.84;5025449;28;20115;-81
2021/11/21 06:19:48;;;;;;;14.73;1.75;;;;;;;9.07;93.53;101385.50;5061743;28;20135;-81
2021/11/21 06:22:14;;;;;;;6.68;1.15;;;;;;;9.06;93.63;101386.41;5008807;28;20025;-81
2021/11/21 06:24:39;;;;;;;7.65;1.25;;;;;;;9.08;93.82;101396.81;5025095;28;20078;-81
2021/11/21 06:27:05;;;;;;;6.72;0.75;;;;;;;9.12;94.09;101390.63;5025389;28;20043;-81
2021/11/21 06:29:30;;;;;;;6.35;1.38;;;;;;;9.16;94.39;101393.09;5041261;28;20116;-81
2021/11/21 06:31:56;;;;;;;4.50;0.90;;;;;;;9.21;94.50;101393.84;5043282;28;20070;-81
2021/11/21 06:34:21;;;;;;;5.30;1.13;;;;;;;9.25;94.53;101396.38;5039563;28;20017;-81
2021/11/21 06:36:47;;;;;;;12.95;1.63;;;;;;;9.25;94.41;101404.22;5040988;28;20348;-81
2021/11/21 06:39:12;;;;;;;4.97;0.60;;;;;;;9.16;92.31;101403.56;5075032;28;20044;-81
2021/11/21 06:41:38;;;;;;;3.97;0.75;;;;;;;9.16;92.12;101402.72;5024408;28;20029;-81
2021/11/21 06:44:04;;;;;;;4.13;0.98;;;;;;;9.17;92.49;101404.44;5024854;28;20305;-81
2021/11/21 06:46:30;;;;;;;4.53;1.00;;;;;;;9.18;92.98;101400.91;5041141;28;20387;-81
2021/11/21 06:48:56;;;;;;;7.68;0.90;;;;;;;9.19;93.09;101392.19;5040907;28;20040;-81
2021/11/21 06:51:21;;;;;;;9.52;1.33;;;;;;;9.17;92.95;101392.22;5057422;28;20039;-81
2021/11/21 06:53:48;;;;;;;3.65;0.70;;;;;;;9.15;92.68;101395.75;5041019;28;20096;-81
2021/11/21 06:56:14;;;;;;;5.57;0.95;;;;;;;9.18;93.09;101393.06;5041287;28;20273;-81
2021/11/21 06:58:40;;;;;;;5.03;0.90;;;;;;;9.21;93.57;101393.00;5024000;28;20028;-81
2021/11/21 07:01:05;;;;;;;2.63;1.00;;;;;;;9.25;94.04;101394.63;5040865;28;20063;-81
2021/11/21 07:03:30;;;;;;;2.50;0.70;;;;;;;9.29;94.13;101395.41;5058515;28;20103;-81
2021/11/21 07:05:56;;;;;;;5.53;1.25;;;;;;;9.30;94.38;101407.59;5024339;28;20047;-81
2021/11/21 07:08:21;;;;;;;4.28;0.80;;;;;;;9.29;94.37;101405.84;5023445;28;20320;-81
2021/11/21 07:10:47;;;;;;;7.57;1.15;;;;;;;9.31;94.38;101410.13;5008444;28;20364;-81
2021/11/21 07:13:12;;;;;;;14.07;1.73;;;;;;;9.26;93.90;101416.38;5058519;28;20041;-81
2021/11/21 07:15:38;;;;;;;5.40;0.80;;;;;;;9.24;93.12;101419.06;5040349;28;20044;-81
2021/11/21 07:18:03;;;;;;;7.32;0.90;;;;;;;9.22;93.05;101416.47;5064541;28;20205;-81
2021/11/21 07:20:29;;;;;;;2.83;0.93;;;;;;;9.21;93.31;101425.22;5023939;28;20060;-81
2021/11/21 07:22:54;;;;;;;11.43;1.25;;;;;;;9.25;93.61;101430.38;5022032;28;20275;-81
2021/11/21 07:25:21;;;;;;;5.28;0.90;;;;;;;9.25;93.84;101430.38;5018425;28;20266;-81
2021/11/21 07:27:47;;;;;;;13.35;1.27;;;;;;;9.21;93.45;101432.19;5020641;28;20093;-82
2021/11/21 07:30:14;;;;;;;6.85;2.28;;;;;;;9.19;93.21;101434.00;5022532;28;20037;-82
2021/11/21 07:32:40;;;;;;;6.53;1.00;;;;;;;9.25;93.41;101431.22;5031073;28;20052;-82
2021/11/21 07:35:06;;;;;;;3.90;0.93;;;;;;;9.29;93.96;101434.59;5055472;28;20247;-82
2021/11/21 07:37:31;;;;;;;8.52;1.38;;;;;;;9.34;94.35;101437.97;5035837;28;20050;-83
2021/11/21 07:39:57;;;;;;;4.93;1.27;;;;;;;9.39;94.57;101436.09;5038354;28;20082;-82
2021/11/21 07:42:22;;;;;;;5.90;0.82;;;;;;;9.42;94.49;101438.59;5037545;28;20036;-82
2021/11/21 07:44:48;;;;;;;8.98;1.33;;;;;;;9.45;94.60;101441.16;5040700;28;20079;-83
2021/11/21 07:47:14;;;;;;;8.35;1.83;;;;;;;9.40;94.63;101443.91;5042642;28;20033;-82
2021/11/21 07:49:39;;;;;;;7.95;0.90;;;;;;;9.33;93.04;101444.06;5044466;28;20067;-82
2021/11/21 07:52:05;;;;;;;11.27;2.25;;;;;;;9.28;92.11;101457.28;5026028;28;20052;-82
2021/11/21 07:54:30;;;;;;;9.00;1.48;;;;;;;9.24;91.81;101468.72;5041865;28;20103;-82
2021/11/21 07:56:56;;;;;;;6.35;1.02;;;;;;;9.23;92.39;101457.38;5060123;28;20037;-82
2021/11/21 07:59:21;;;;;;;6.43;1.58;;;;;;;9.25;92.64;101456.50;5059238;28;20049;-82
2021/11/21 08:01:48;;;;;;;7.18;1.00;;;;;;;9.24;93.07;101468.72;5060714;28;20041;-82
2021/11/21 08:04:13;;;;;;;11.48;1.33;;;;;;;9.25;93.42;101478.25;5017767;28;20044;-82
2021/11/21 08:06:38;;;;;;;6.60;1.00;;;;;;;9.26;93.60;101480.00;5049934;28;20324;-82
2021/11/21 08:09:04;;;;;;;8.73;0.98;;;;;;;9.29;93.68;101463.34;5060656;28;20232;-82
2021/11/21 08:11:29;;;;;;;7.57;1.50;;;;;;;9.25;92.63;101454.75;5041653;28;20549;-82
2021/11/21 08:13:55;;;;;;;9.35;1.40;;;;;;;9.26;93.24;101459.09;5030344;28;20055;-82
2021/11/21 08:16:21;;;;;;;7.20;1.25;;;;;;;9.28;93.39;101464.25;5058007;28;20063;-82
2021/11/21 08:18:46;;;;;;;7.68;1.50;;;;;;;9.20;92.75;101467.06;5041723;28;20202;-82
2021/11/21 08:21:11;;;;;;;10.35;1.30;;;;;;;9.17;92.31;101467.16;5025532;28;20040;-82
2021/11/21 08:23:37;;;;;;;7.53;0.80;;;;;;;9.13;91.82;101470.72;5028652;28;20098;-82
2021/11/21 08:26:03;;;;;;;3.67;0.82;;;;;;;9.09;91.81;101469.09;5029623;28;20037;-82
2021/11/21 08:28:28;;;;;;;10.55;1.23;;;;;;;9.01;90.94;101469.28;5012223;28;20024;-82
2021/11/21 08:30:53;;;;;;;8.55;0.98;;;;;;;8.96;90.69;101471.97;5045766;28;20032;-82
2021/11/21 08:33:19;;;;;;;10.60;1.08;;;;;;;8.90;90.52;101473.91;5045028;28;20102;-82
2021/11/21 08:35:44;;;;;;;6.65;0.70;;;;;;;8.85;90.34;101476.59;5046251;28;20043;-82
2021/11/21 08:38:10;;;;;;;4.45;0.77;;;;;;;8.79;90.27;101472.38;5045952;28;20082;-82
2021/11/21 08:40:35;;;;;;;6.75;1.00;;;;;;;8.74;90.44;101470.78;5045054;28;20052;-82
2021/11/21 08:43:01;;;;;;;8.48;1.30;;;;;;;8.69;90.06;101467.41;5012839;28;20033;-82
2021/11/21 08:45:32;;;;;;;6.18;1.73;;;;;;;8.63;90.07;101474.47;5011891;28;20041;-82
2021/11/21 08:47:58;;;;;;;5.97;1.30;;;;;;;8.59;90.18;101470.22;5043228;28;20052;-81
2021/11/21 08:50:23;;;;;;;5.03;1.35;;;;;;;8.55;90.20;101471.19;5039764;28;20048;-82
2021/11/21 08:52:49;;;;;;;5.78;1.17;;;;;;;8.52;90.55;101470.41;5024516;28;20048;-81
2021/11/21 08:55:15;;;;;;;10.85;1.35;;;;;;;8.49;90.52;101466.09;5023656;28;20146;-81
2021/11/21 08:57:41;;;;;;;6.25;1.38;;;;;;;8.45;90.56;101460.06;5058385;28;20248;-81
2021/11/21 09:00:07;;;;;;;8.13;1.23;;;;;;;8.42;90.68;101469.72;5058733;28;20045;-81
2021/11/21 09:02:33;;;;;;;4.18;1.00;;;;;;;8.39;90.39;101470.63;5040433;28;20094;-81
2021/11/21 09:05:06;;;;;;;13.18;2.15;;;;;;;8.37;90.23;101468.97;5040406;28;20099;-81
2021/11/21 09:07:31;;;;;;;10.98;0.75;;;;;;;8.34;90.10;101484.69;5057354;28;20041;-81
2021/11/21 09:09:57;;;;;;;2.67;0.90;;;;;;;8.30;90.58;101475.19;5024306;28;20108;-81
2021/11/21 09:12:22;;;;;;;7.72;1.20;;;;;;;8.28;90.73;101483.06;5040636;28;20077;-81
2021/11/21 09:14:48;;;;;;;8.40;1.52;;;;;;;8.25;90.50;101476.13;5024661;28;20102;-81
2021/11/21 09:17:13;;;;;;;6.00;1.10;;;;;;;8.24;90.42;101471.81;5059394;28;20111;-81
2021/11/21 09:19:39;;;;;;;5.95;0.90;;;;;;;8.23;90.73;101480.53;5033021;28;20060;-81
2021/11/21 09:22:04;;;;;;;6.82;1.80;;;;;;;8.23;90.70;101482.28;5041242;28;20052;-81
2021/11/21 09:24:30;;;;;;;5.03;1.02;;;;;;;8.22;90.78;101475.34;5040404;28;20049;-81
2021/11/21 09:26:55;;;;;;;8.65;1.52;;;;;;;8.17;90.42;101480.66;5041359;28;20238;-81
2021/11/21 09:29:20;;;;;;;4.97;1.05;;;;;;;8.16;90.58;101489.38;5058401;28;20374;-81
2021/11/21 09:31:46;;;;;;;17.58;1.45;;;;;;;8.16;90.92;101485.91;5041246;28;20052;-81
2021/11/21 09:34:13;;;;;;;6.32;0.98;;;;;;;8.16;91.17;101489.38;5040461;28;20025;-81
2021/11/21 09:36:39;;;;;;;5.18;1.20;;;;;;;8.17;91.38;101483.28;5040988;28;20039;-81
2021/11/21 09:39:04;;;;;;;7.80;1.40;;;;;;;8.18;91.51;101492.81;5058586;28;20048;-81
2021/11/21 09:41:30;;;;;;;11.00;1.30;;;;;;;8.19;91.47;101493.69;5041393;28;20037;-81
2021/11/21 09:43:55;;;;;;;6.70;1.20;;;;;;;8.19;91.37;101498.91;5032977;28;20040;-81
2021/11/21 09:46:21;;;;;;;4.10;1.20;;;;;;;8.19;91.38;101491.06;5039699;28;20060;-81
2021/11/21 09:48:46;;;;;;;5.35;1.50;;;;;;;8.23;91.67;101492.72;5041082;28;20037;-81
2021/11/21 09:51:12;;;;;;;6.80;1.23;;;;;;;8.26;91.55;101488.31;5040426;28;20074;-81
2021/11/21 09:53:37;;;;;;;3.75;0.90;;;;;;;8.35;91.69;101491.59;5040625;28;20348;-81
2021/11/21 09:56:03;;;;;;;4.43;1.08;;;;;;;8.47;91.98;101498.34;5040800;28;20041;-81
2021/11/21 09:58:28;;;;;;;7.85;1.65;;;;;;;8.56;92.32;101495.53;5039265;28;20112;-81
2021/11/21 10:00:54;;;;;;;4.65;1.15;;;;;;;8.63;92.26;101490.16;5057848;28;20083;-81
2021/11/21 10:03:19;;;;;;;6.05;1.33;;;;;;;8.73;92.41;101490.81;5023668;28;20040;-81
2021/11/21 10:05:55;;;;;;;7.80;1.30;;;;;;;8.81;92.63;101490.63;5023620;28;20033;-81
2021/11/21 10:08:24;;;;;;;7.90;1.23;;;;;;;8.84;92.26;101499.25;5040535;28;20083;-81
2021/11/21 10:10:55;;;;;;;7.03;1.25;;;;;;;8.84;91.73;101493.16;5039836;28;20025;-81
2021/11/21 10:13:37;;;;;;;5.20;1.02;;;;;;;8.87;91.54;101487.03;5055751;28;20119;-81
2021/11/21 10:16:17;;;;;;;5.75;0.88;;;;;;;8.87;91.29;101493.09;5029750;28;20029;-81
2021/11/21 10:18:54;;;;;;;6.85;1.35;;;;;;;8.88;90.86;101491.34;5028623;28;20248;-81
2021/11/21 10:21:49;;;;;;;3.55;1.05;;;;;;;8.89;89.83;101493.06;5041574;28;20330;-81
2021/11/21 10:24:15;;;;;;;4.65;1.30;;;;;;;8.89;89.49;101491.31;4997443;28;20376;-81
2021/11/21 10:26:41;;;;;;;8.57;1.45;;;;;;;8.94;89.86;101489.44;5055483;28;20036;-81
2021/11/21 10:29:36;;;;;;;4.65;0.60;;;;;;;8.99;89.76;101490.22;5025149;28;20033;-82
2021/11/21 10:32:04;;;;;;;2.17;0.65;;;;;;;9.08;90.31;101488.25;5043323;28;20300;-82
2021/11/21 10:34:30;;;;;;;2.95;0.70;;;;;;;9.14;90.99;101495.97;5025208;28;20033;-81
2021/11/21 10:36:55;;;;;;;8.63;1.23;;;;;;;9.19;91.02;101491.50;5041519;28;20037;-82
2021/11/21 10:39:27;;;;;;;3.70;0.80;;;;;;;9.23;90.87;101496.59;5058474;28;20040;-80
2021/11/21 10:41:52;;;;;;;8.02;1.42;;;;;;;9.23;89.92;101498.34;5016079;28;20047;-80
2021/11/21 10:44:20;;;;;;;10.18;1.02;;;;;;;9.23;89.31;101498.34;5020015;28;20036;-80
2021/11/21 10:46:53;;;;;;;6.60;0.82;;;;;;;9.27;89.91;101501.75;5020122;28;20037;-80
2021/11/21 10:49:28;;;;;;;8.95;1.10;;;;;;;9.28;89.58;101495.59;5021140;28;20334;-80
2021/11/21 10:52:08;;;;;;;9.30;1.23;;;;;;;9.30;89.57;101499.06;5003946;28;20032;-80
2021/11/21 10:54:45;;;;;;;9.18;0.90;;;;;;;9.22;86.46;101497.50;5022524;28;20056;-80
2021/11/21 10:57:13;;;;;;;2.78;0.65;;;;;;;9.23;86.92;101493.97;5034982;28;20457;-80
2021/11/21 10:59:41;;;;;;;3.15;0.63;;;;;;;9.24;87.67;101481.78;5021611;28;20037;-80
2021/11/21 11:02:09;;;;;;;2.55;0.40;;;;;;;9.26;87.78;101492.19;5021514;28;20036;-80
2021/11/21 11:04:35;;;;;;;5.85;1.10;;;;;;;9.26;87.62;101487.84;5026465;28;20036;-80
2021/11/21 11:07:15;;;;;;;3.35;1.02;;;;;;;9.30;88.20;101486.00;5056466;28;20044;-81
2021/11/21 11:09:42;;;;;;;5.95;0.95;;;;;;;9.30;88.26;101486.84;5037881;28;20162;-80
2021/11/21 11:12:08;;;;;;;5.75;0.55;;;;;;;9.29;87.66;101490.34;5038303;28;20425;-80
2021/11/21 11:14:33;;;;;;;3.25;0.70;;;;;;;9.29;86.70;101485.13;5039094;28;20041;-80
2021/11/21 11:16:59;;;;;;;3.25;0.68;;;;;;;9.29;86.51;101484.28;5052989;28;20414;-80
2021/11/21 11:19:26;;;;;;;2.25;0.52;;;;;;;9.30;86.72;101489.47;5037873;28;20037;-80
2021/11/21 11:21:52;;;;;;;2.42;0.65;;;;;;;9.35;87.77;101490.22;5022566;28;20028;-80
2021/11/21 11:24:20;;;;;;;6.43;1.58;;;;;;;9.35;87.27;101482.38;5038746;28;20104;-80
2021/11/21 11:26:45;;;;;;;4.95;0.75;;;;;;;9.38;87.57;101490.13;5038923;28;20037;-80
2021/11/21 11:29:15;;;;;;;7.70;1.27;;;;;;;9.37;85.49;101492.78;5038807;28;20082;-80
2021/11/21 11:31:40;;;;;;;12.85;1.55;;;;;;;9.38;86.34;101494.50;5021190;28;20367;-80